createdAt,value
2023-01-22T00:01:16.516Z,82.43
2023-01-22T00:03:46.588Z,85.30
2023-01-22T00:06:14.441Z,80.53
2023-01-22T00:08:42.351Z,90.60
2023-01-22T00:11:11.124Z,106.10
2023-01-22T00:13:38.700Z,84.78
2023-01-22T00:16:07.518Z,66.18
2023-01-22T00:18:35.223Z,71.05
2023-01-22T00:21:02.503Z,69.35
2023-01-22T00:23:30.079Z,70.53
2023-01-22T00:26:10.993Z,61.15
2023-01-22T00:28:39.024Z,68.47
2023-01-22T00:31:07.792Z,58.97
2023-01-22T00:33:35.286Z,66.47
2023-01-22T00:36:10.271Z,61.38
2023-01-22T00:38:37.785Z,54.15
2023-01-22T00:41:08.651Z,46.58
2023-01-22T00:43:40.553Z,52.08
2023-01-22T00:46:09.952Z,52.05
2023-01-22T00:48:37.494Z,58.60
2023-01-22T00:51:05.745Z,55.25
2023-01-22T00:53:33.148Z,47.95
2023-01-22T00:56:02.122Z,45.30
2023-01-22T00:58:30.649Z,51.83
2023-01-22T01:00:58.260Z,51.53
2023-01-22T01:03:32.424Z,52.78
2023-01-22T01:06:15.793Z,63.70
2023-01-22T01:08:44.143Z,56.60
2023-01-22T01:11:22.664Z,55.67
2023-01-22T01:13:51.653Z,54.13
2023-01-22T01:16:26.767Z,58.95
2023-01-22T01:19:04.914Z,45.50
2023-01-22T01:21:32.907Z,53.75
2023-01-22T01:24:00.763Z,48.95
2023-01-22T01:26:28.611Z,44.65
2023-01-22T01:28:56.781Z,49.40
2023-01-22T01:31:26.269Z,55.67
2023-01-22T01:33:54.002Z,51.92
2023-01-22T01:36:46.396Z,56.80
2023-01-22T01:39:11.537Z,59.22
2023-01-22T01:41:38.858Z,64.90
2023-01-22T01:44:23.223Z,56.20
2023-01-22T01:47:01.229Z,59.00
2023-01-22T01:49:43.703Z,75.97
2023-01-22T01:52:13.010Z,72.47
2023-01-22T01:54:45.196Z,76.15
2023-01-22T01:57:19.208Z,85.68
2023-01-22T01:59:50.102Z,78.22
2023-01-22T02:02:19.903Z,89.40
2023-01-22T02:04:50.899Z,94.68
2023-01-22T02:07:18.784Z,97.30
2023-01-22T02:09:46.985Z,97.93
2023-01-22T02:12:14.204Z,107.28
2023-01-22T02:14:44.570Z,114.15
2023-01-22T02:17:12.947Z,105.28
2023-01-22T02:19:41.413Z,85.32
2023-01-22T02:22:19.306Z,100.20
2023-01-22T02:24:47.506Z,91.50
2023-01-22T02:27:14.969Z,86.75
2023-01-22T02:29:42.626Z,97.95
2023-01-22T02:32:11.523Z,93.75
2023-01-22T02:34:39.100Z,98.70
2023-01-22T02:37:06.434Z,110.38
2023-01-22T02:39:34.039Z,96.88
2023-01-22T02:42:05.284Z,97.45
2023-01-22T02:44:33.005Z,108.72
2023-01-22T02:47:00.361Z,98.93
2023-01-22T02:49:28.338Z,92.90
2023-01-22T02:51:55.508Z,126.97
2023-01-22T02:54:24.291Z,121.00
2023-01-22T02:56:51.450Z,118.93
2023-01-22T02:59:19.174Z,102.63
2023-01-22T03:01:48.474Z,129.88
2023-01-22T03:04:16.579Z,104.03
2023-01-22T03:06:45.889Z,129.73
2023-01-22T03:09:16.201Z,119.00
2023-01-22T03:11:45.829Z,131.02
2023-01-22T03:14:35.945Z,104.45
2023-01-22T03:17:22.184Z,118.97
2023-01-22T03:20:10.156Z,121.22
2023-01-22T03:22:37.452Z,164.77
2023-01-22T03:25:05.351Z,167.93
2023-01-22T03:27:33.063Z,144.55
2023-01-22T03:30:00.677Z,165.82
2023-01-22T03:32:32.927Z,138.70
2023-01-22T03:35:01.795Z,128.80
2023-01-22T03:37:39.645Z,179.52
2023-01-22T03:40:09.915Z,158.05
2023-01-22T03:42:39.162Z,162.95
2023-01-22T03:45:07.724Z,164.88
2023-01-22T03:47:37.545Z,187.07
2023-01-22T03:50:18.972Z,169.35
2023-01-22T03:52:46.567Z,167.13
2023-01-22T03:55:13.997Z,193.52
2023-01-22T03:57:41.859Z,149.23
2023-01-22T04:00:10.063Z,150.63
2023-01-22T04:02:40.456Z,173.43
2023-01-22T04:05:18.275Z,164.43
2023-01-22T04:07:45.549Z,140.30
2023-01-22T04:10:14.176Z,154.93
2023-01-22T04:12:41.536Z,165.60
2023-01-22T04:15:11.542Z,159.48
2023-01-22T04:17:39.915Z,131.38
2023-01-22T04:20:21.183Z,144.32
2023-01-22T04:22:58.394Z,140.20
2023-01-22T04:25:25.948Z,153.02
2023-01-22T04:27:53.151Z,105.70
2023-01-22T04:30:20.924Z,123.57
2023-01-22T04:32:53.671Z,135.52
2023-01-22T04:35:31.346Z,112.40
2023-01-22T04:37:59.751Z,96.35
2023-01-22T04:40:27.416Z,90.22
2023-01-22T04:42:55.541Z,82.68
2023-01-22T04:45:24.163Z,80.15
2023-01-22T04:47:51.859Z,76.43
2023-01-22T04:50:26.812Z,71.45
2023-01-22T04:52:56.036Z,73.05
2023-01-22T04:55:24.949Z,65.57
2023-01-22T04:58:00.205Z,63.33
2023-01-22T05:00:29.787Z,57.67
2023-01-22T05:03:00.250Z,56.53
2023-01-22T05:05:30.249Z,55.70
2023-01-22T05:07:58.452Z,56.20
2023-01-22T05:10:26.907Z,52.70
2023-01-22T05:12:54.468Z,57.13
2023-01-22T05:15:24.824Z,46.65
2023-01-22T05:17:55.755Z,46.05
2023-01-22T05:20:23.221Z,42.50
2023-01-22T05:22:50.428Z,44.85
2023-01-22T05:25:21.892Z,47.28
2023-01-22T05:27:49.258Z,47.35
2023-01-22T05:30:28.225Z,51.42
2023-01-22T05:33:00.271Z,44.42
2023-01-22T05:35:29.141Z,47.58
2023-01-22T05:37:57.209Z,52.83
2023-01-22T05:40:24.966Z,47.03
2023-01-22T05:42:53.289Z,53.10
2023-01-22T05:45:22.100Z,51.10
2023-01-22T05:48:12.082Z,40.42
2023-01-22T05:51:07.112Z,53.13
2023-01-22T05:53:35.628Z,50.80
2023-01-22T05:56:04.477Z,50.63
2023-01-22T05:58:35.709Z,55.67
2023-01-22T06:01:03.949Z,53.08
2023-01-22T06:03:37.072Z,55.80
2023-01-22T06:06:12.544Z,63.97
2023-01-22T06:08:40.297Z,67.32
2023-01-22T06:11:15.489Z,70.80
2023-01-22T06:13:46.530Z,58.35
2023-01-22T06:16:21.942Z,64.35
2023-01-22T06:19:08.402Z,61.42
2023-01-22T06:21:46.047Z,60.83
2023-01-22T06:24:13.664Z,65.47
2023-01-22T06:26:41.544Z,64.82
2023-01-22T06:29:11.905Z,70.75
2023-01-22T06:31:40.641Z,52.83
2023-01-22T06:34:09.393Z,55.95
2023-01-22T06:36:36.977Z,60.58
2023-01-22T06:39:05.204Z,56.78
2023-01-22T06:41:39.852Z,66.85
2023-01-22T06:44:10.404Z,58.22
2023-01-22T06:46:38.230Z,66.70
2023-01-22T06:49:10.419Z,55.13
2023-01-22T06:51:40.458Z,58.13
2023-01-22T06:54:08.296Z,57.90
2023-01-22T06:56:35.885Z,51.70
2023-01-22T06:59:04.873Z,60.67
2023-01-22T07:01:32.354Z,54.33
2023-01-22T07:03:59.631Z,54.95
2023-01-22T07:06:27.007Z,49.35
2023-01-22T07:08:56.282Z,49.50
2023-01-22T07:11:23.812Z,51.70
2023-01-22T07:13:50.977Z,53.30
2023-01-22T07:16:18.419Z,51.60
2023-01-22T07:18:45.581Z,57.05
2023-01-22T07:21:13.299Z,59.80
2023-01-22T07:23:42.024Z,48.15
2023-01-22T07:26:09.565Z,51.03
2023-01-22T07:28:36.715Z,47.45
2023-01-22T07:31:05.370Z,45.70
2023-01-22T07:33:34.224Z,49.33
2023-01-22T07:36:01.649Z,46.55
2023-01-22T07:38:29.296Z,42.75
2023-01-22T07:41:14.105Z,48.53
2023-01-22T07:43:49.292Z,44.65
2023-01-22T07:46:16.964Z,51.50
2023-01-22T07:48:45.901Z,43.33
2023-01-22T07:51:13.463Z,55.85
2023-01-22T07:53:41.914Z,43.28
2023-01-22T07:56:09.379Z,38.28
2023-01-22T07:58:36.451Z,43.22
2023-01-22T08:01:08.075Z,41.97
2023-01-22T08:03:35.306Z,39.08
2023-01-22T08:06:08.395Z,39.33
2023-01-22T08:08:35.810Z,37.90
2023-01-22T08:11:03.686Z,37.95
2023-01-22T08:13:31.086Z,37.45
2023-01-22T08:15:58.574Z,37.75
2023-01-22T08:18:25.790Z,38.88
2023-01-22T08:20:53.349Z,35.75
2023-01-22T08:23:21.936Z,31.20
2023-01-22T08:25:49.629Z,34.40
2023-01-22T08:28:17.475Z,35.63
2023-01-22T08:30:46.814Z,30.67
2023-01-22T08:33:16.003Z,32.40
2023-01-22T08:35:44.911Z,35.70
2023-01-22T08:38:12.083Z,33.03
2023-01-22T08:40:39.501Z,28.23
2023-01-22T08:43:06.648Z,33.92
2023-01-22T08:45:34.364Z,34.08
2023-01-22T08:48:01.835Z,30.38
2023-01-22T08:50:29.692Z,35.75
2023-01-22T08:52:57.820Z,37.10
2023-01-22T08:55:27.635Z,29.88
2023-01-22T08:57:56.096Z,31.83
2023-01-22T09:00:24.956Z,30.27
2023-01-22T09:02:52.221Z,38.28
2023-01-22T09:05:19.632Z,30.80
2023-01-22T09:07:46.768Z,36.13
2023-01-22T09:10:14.587Z,33.25
2023-01-22T09:12:41.836Z,30.25
2023-01-22T09:15:10.556Z,31.17
2023-01-22T09:17:37.660Z,36.78
2023-01-22T09:20:05.571Z,35.85
2023-01-22T09:22:32.813Z,29.58
2023-01-22T09:25:00.433Z,30.83
2023-01-22T09:27:27.613Z,33.83
2023-01-22T09:29:55.024Z,36.42
2023-01-22T09:32:22.113Z,35.47
2023-01-22T09:34:49.476Z,38.65
2023-01-22T09:37:16.820Z,43.33
2023-01-22T09:39:44.334Z,38.83
2023-01-22T09:42:21.464Z,36.53
2023-01-22T09:44:55.010Z,47.60
2023-01-22T09:47:38.466Z,42.38
2023-01-22T09:50:31.208Z,48.72
2023-01-22T09:53:05.007Z,38.90
2023-01-22T09:55:41.680Z,47.17
2023-01-22T09:58:17.127Z,58.08
2023-01-22T10:00:50.380Z,78.43
2023-01-22T10:03:34.498Z,44.80
2023-01-22T10:06:15.736Z,83.55
2023-01-22T10:08:58.452Z,72.03
2023-01-22T10:11:26.337Z,50.97
2023-01-22T10:13:59.735Z,64.13
2023-01-22T10:16:27.895Z,46.95
2023-01-22T10:19:11.666Z,45.33
2023-01-22T10:21:48.618Z,75.30
2023-01-22T10:24:15.875Z,56.88
2023-01-22T10:26:54.184Z,90.53
2023-01-22T10:29:29.749Z,80.22
2023-01-22T10:32:17.331Z,59.85
2023-01-22T10:34:56.913Z,51.08
2023-01-22T10:37:24.394Z,71.13
2023-01-22T10:39:57.877Z,76.15
2023-01-22T10:42:28.527Z,74.15
2023-01-22T10:45:14.800Z,48.47
2023-01-22T10:47:42.357Z,79.53
2023-01-22T10:50:16.772Z,52.60
2023-01-22T10:52:55.402Z,50.58
2023-01-22T10:55:31.991Z,65.47
2023-01-22T10:58:03.127Z,77.80
2023-01-22T11:00:50.948Z,214.90
2023-01-22T11:03:23.070Z,83.38
2023-01-22T11:05:57.876Z,82.63
2023-01-22T11:08:30.757Z,73.63
2023-01-22T11:11:03.462Z,127.60
2023-01-22T11:13:53.214Z,99.25
2023-01-22T11:16:23.260Z,99.72
2023-01-22T11:19:36.920Z,188.98
2023-01-22T11:22:14.433Z,135.50
2023-01-22T11:24:47.364Z,114.95
2023-01-22T11:27:21.815Z,113.45
2023-01-22T11:30:18.121Z,140.98
2023-01-22T11:33:07.736Z,136.45
2023-01-22T11:35:46.568Z,110.18
2023-01-22T11:38:18.920Z,98.60
2023-01-22T11:40:58.842Z,188.60
2023-01-22T11:43:46.643Z,104.72
2023-01-22T11:46:25.361Z,163.07
2023-01-22T11:49:22.792Z,160.15
2023-01-22T11:52:05.093Z,119.28
2023-01-22T11:54:52.550Z,190.25
2023-01-22T11:57:33.084Z,127.40
2023-01-22T12:00:44.481Z,152.07
2023-01-22T12:03:39.602Z,127.72
2023-01-22T12:06:40.834Z,88.53
2023-01-22T12:09:14.212Z,116.07
2023-01-22T12:12:02.856Z,91.45
2023-01-22T12:14:49.884Z,148.18
2023-01-22T12:17:17.015Z,106.18
2023-01-22T12:20:12.938Z,103.70
2023-01-22T12:23:01.088Z,113.55
2023-01-22T12:25:41.460Z,161.80
2023-01-22T12:28:40.433Z,129.98
2023-01-22T12:31:23.230Z,114.95
2023-01-22T12:36:22.597Z,110.18
2023-01-22T12:39:07.691Z,106.60
2023-01-22T12:41:35.038Z,128.73
2023-01-22T12:44:45.631Z,123.55
2023-01-22T12:47:23.953Z,108.80
2023-01-22T12:49:52.644Z,103.22
2023-01-22T12:52:33.980Z,112.28
2023-01-22T12:55:03.006Z,109.55
2023-01-22T12:57:40.230Z,111.40
2023-01-22T13:00:24.705Z,101.18
2023-01-22T13:02:52.400Z,121.53
2023-01-22T13:05:40.237Z,121.20
2023-01-22T13:08:16.885Z,128.35
2023-01-22T13:11:13.497Z,111.90
2023-01-22T13:13:49.491Z,149.93
2023-01-22T13:16:18.645Z,103.72
2023-01-22T13:18:58.047Z,107.50
2023-01-22T13:21:32.422Z,110.20
2023-01-22T13:24:13.517Z,121.78
2023-01-22T13:26:41.508Z,110.28
2023-01-22T13:29:21.554Z,106.43
2023-01-22T13:32:17.590Z,121.07
2023-01-22T13:34:45.055Z,116.28
2023-01-22T13:37:27.799Z,107.28
2023-01-22T13:39:55.340Z,105.78
2023-01-22T13:42:24.761Z,106.35
2023-01-22T13:44:52.679Z,131.25
2023-01-22T13:47:36.132Z,138.70
2023-01-22T13:50:04.222Z,109.80
2023-01-22T13:52:33.534Z,133.63
2023-01-22T13:55:05.749Z,107.32
2023-01-22T13:57:32.953Z,115.05
2023-01-22T14:00:02.296Z,101.43
2023-01-22T14:02:37.639Z,110.28
2023-01-22T14:05:26.802Z,109.80
2023-01-22T14:08:13.669Z,104.10
2023-01-22T14:10:42.200Z,119.57
2023-01-22T14:13:13.532Z,98.85
2023-01-22T14:15:41.894Z,104.63
2023-01-22T14:18:13.428Z,115.70
2023-01-22T14:20:43.005Z,129.43
2023-01-22T14:23:10.459Z,125.13
2023-01-22T14:25:40.618Z,103.80
2023-01-22T14:28:08.177Z,99.28
2023-01-22T14:30:36.367Z,107.40
2023-01-22T14:33:04.198Z,113.78
2023-01-22T14:35:32.067Z,121.80
2023-01-22T14:37:59.445Z,116.82
2023-01-22T14:40:27.826Z,135.52
2023-01-22T14:42:55.137Z,113.85
2023-01-22T14:45:22.728Z,107.95
2023-01-22T14:47:51.780Z,99.72
2023-01-22T14:50:20.864Z,109.55
2023-01-22T14:52:50.987Z,115.00
2023-01-22T14:55:19.415Z,105.78
2023-01-22T14:57:46.857Z,128.07
2023-01-22T15:00:16.826Z,95.32
2023-01-22T15:02:44.300Z,107.38
2023-01-22T15:05:12.240Z,97.93
2023-01-22T15:07:39.460Z,112.13
2023-01-22T15:10:08.542Z,100.35
2023-01-22T15:12:35.937Z,85.65
2023-01-22T15:15:03.671Z,84.68
2023-01-22T15:17:31.154Z,92.00
2023-01-22T15:19:59.105Z,86.90
2023-01-22T15:22:26.389Z,87.43
2023-01-22T15:24:53.873Z,80.97
2023-01-22T15:27:21.052Z,76.22
2023-01-22T15:29:48.698Z,81.78
2023-01-22T15:32:16.228Z,90.93
2023-01-22T15:34:43.725Z,76.75
2023-01-22T15:37:13.705Z,91.85
2023-01-22T15:39:41.925Z,90.68
2023-01-22T15:42:09.329Z,84.53
2023-01-22T15:44:37.613Z,97.40
2023-01-22T15:47:05.861Z,104.25
2023-01-22T15:49:33.934Z,105.75
2023-01-22T15:52:01.435Z,103.78
2023-01-22T15:54:28.927Z,110.10
2023-01-22T15:56:56.758Z,135.15
2023-01-22T15:59:24.372Z,103.30
2023-01-22T16:01:52.508Z,106.47
2023-01-22T16:04:20.086Z,115.20
2023-01-22T16:06:47.312Z,103.97
2023-01-22T16:09:14.875Z,100.80
2023-01-22T16:11:42.181Z,106.50
2023-01-22T16:14:09.659Z,110.70
2023-01-22T16:16:38.024Z,124.22
2023-01-22T16:19:07.894Z,128.75
2023-01-22T16:21:35.915Z,128.75
2023-01-22T16:24:07.095Z,99.38
2023-01-22T16:26:35.049Z,115.10
2023-01-22T16:29:04.705Z,101.22
2023-01-22T16:31:34.567Z,108.70
2023-01-22T16:34:11.570Z,110.78
2023-01-22T16:36:39.656Z,112.43
2023-01-22T16:39:07.878Z,110.60
2023-01-22T16:41:36.935Z,110.85
2023-01-22T16:44:14.815Z,127.10
2023-01-22T16:46:44.740Z,112.43
2023-01-22T16:49:15.111Z,111.25
2023-01-22T16:51:45.632Z,120.38
2023-01-22T16:54:27.976Z,110.65
2023-01-22T16:56:57.436Z,107.88
2023-01-22T16:59:27.074Z,115.63
2023-01-22T17:01:55.687Z,110.72
2023-01-22T17:04:23.420Z,99.22
2023-01-22T17:06:53.280Z,97.55
2023-01-22T17:09:24.441Z,113.15
2023-01-22T17:11:53.555Z,120.45
2023-01-22T17:14:23.056Z,100.97
2023-01-22T17:16:50.824Z,112.15
2023-01-22T17:19:19.639Z,106.00
2023-01-22T17:21:50.578Z,108.72
2023-01-22T17:24:18.579Z,115.35
2023-01-22T17:26:47.974Z,94.72
2023-01-22T17:29:19.725Z,89.68
2023-01-22T17:31:50.172Z,104.07
2023-01-22T17:34:18.425Z,90.88
2023-01-22T17:36:45.744Z,94.55
2023-01-22T17:39:17.128Z,92.25
2023-01-22T17:41:45.030Z,114.80
2023-01-22T17:44:12.979Z,100.00
2023-01-22T17:46:40.477Z,97.35
2023-01-22T17:49:08.129Z,87.97
2023-01-22T17:51:35.885Z,133.90
2023-01-22T17:54:06.019Z,84.25
2023-01-22T17:56:37.134Z,86.75
2023-01-22T17:59:06.468Z,98.65
2023-01-22T18:01:35.799Z,303.65
2023-01-22T18:04:06.425Z,133.88
2023-01-22T18:06:34.667Z,110.03
2023-01-22T18:09:02.999Z,95.13
2023-01-22T18:11:30.643Z,133.50
2023-01-22T18:14:03.646Z,193.55
2023-01-22T18:16:33.625Z,118.20
2023-01-22T18:19:05.242Z,86.85
2023-01-22T18:21:32.939Z,130.85
2023-01-22T18:24:02.240Z,155.40
2023-01-22T18:26:29.781Z,154.63
2023-01-22T18:28:58.885Z,168.05
2023-01-22T18:31:27.997Z,91.88
2023-01-22T18:33:57.722Z,90.55
2023-01-22T18:36:28.461Z,86.72
2023-01-22T18:39:02.700Z,244.88
2023-01-22T18:41:30.801Z,130.05
2023-01-22T18:44:00.793Z,149.50
2023-01-22T18:46:34.211Z,583.88
2023-01-22T18:49:04.663Z,337.98
2023-01-22T18:51:33.312Z,290.33
2023-01-22T18:54:03.232Z,255.43
2023-01-22T18:56:30.906Z,136.80
2023-01-22T18:58:58.887Z,94.30
2023-01-22T19:01:35.405Z,151.02
2023-01-22T19:04:06.035Z,127.35
2023-01-22T19:06:37.100Z,211.57
2023-01-22T19:09:14.271Z,132.63
2023-01-22T19:11:44.063Z,117.72
2023-01-22T19:14:16.467Z,106.57
2023-01-22T19:16:45.004Z,163.68
2023-01-22T19:19:13.649Z,87.78
2023-01-22T19:21:46.682Z,91.72
2023-01-22T19:24:17.707Z,116.60
2023-01-22T19:26:46.616Z,94.68
2023-01-22T19:29:17.528Z,93.13
2023-01-22T19:31:48.628Z,139.60
2023-01-22T19:34:23.344Z,157.25
2023-01-22T19:36:56.802Z,135.02
2023-01-22T19:39:28.178Z,103.45
2023-01-22T19:41:56.714Z,92.45
2023-01-22T19:44:24.351Z,99.78
2023-01-22T19:46:51.654Z,92.82
2023-01-22T19:49:19.789Z,137.63
2023-01-22T19:51:47.208Z,114.55
2023-01-22T19:54:15.069Z,119.47
2023-01-22T19:56:45.499Z,101.00
2023-01-22T19:59:18.363Z,98.25
2023-01-22T20:01:47.348Z,80.50
2023-01-22T20:04:26.382Z,94.60
2023-01-22T20:06:59.408Z,95.50
2023-01-22T20:09:27.191Z,111.95
2023-01-22T20:11:55.977Z,130.68
2023-01-22T20:14:32.885Z,217.07
2023-01-22T20:17:01.792Z,90.28
2023-01-22T20:19:30.652Z,85.10
2023-01-22T20:21:58.155Z,160.95
2023-01-22T20:24:25.869Z,125.38
2023-01-22T20:26:58.059Z,129.15
2023-01-22T20:31:53.332Z,70.05
2023-01-22T20:34:21.595Z,77.63
2023-01-22T20:36:49.016Z,84.10
2023-01-22T20:39:16.688Z,87.32
2023-01-22T20:41:45.605Z,71.60
2023-01-22T20:44:14.055Z,74.80
2023-01-22T20:46:44.440Z,90.80
2023-01-22T20:49:12.646Z,175.00
2023-01-22T20:51:40.301Z,87.35
2023-01-22T20:54:08.026Z,93.43
2023-01-22T20:56:35.849Z,71.90
2023-01-22T20:59:10.974Z,122.10
2023-01-22T21:01:38.865Z,81.82
2023-01-22T21:04:07.085Z,104.80
2023-01-22T21:06:36.178Z,87.05
2023-01-22T21:09:04.740Z,102.00
2023-01-22T21:11:34.352Z,90.82
2023-01-22T21:14:05.100Z,104.30
2023-01-22T21:16:35.793Z,163.30
2023-01-22T21:19:15.953Z,176.80
2023-01-22T21:21:43.586Z,110.55
2023-01-22T21:24:11.256Z,101.38
2023-01-22T21:26:39.129Z,194.43
2023-01-22T21:29:09.192Z,200.82
2023-01-22T21:31:37.307Z,100.00
2023-01-22T21:34:06.410Z,152.40
2023-01-22T21:36:36.448Z,125.90
2023-01-22T21:39:06.376Z,125.40
2023-01-22T21:41:34.165Z,148.82
2023-01-22T21:44:20.626Z,169.00
2023-01-22T21:46:48.180Z,111.40
2023-01-22T21:49:22.682Z,108.00
2023-01-22T21:52:01.105Z,127.55
2023-01-22T21:54:35.256Z,91.70
2023-01-22T21:57:03.670Z,121.72
2023-01-22T21:59:31.619Z,99.72
2023-01-22T22:01:58.878Z,97.93
2023-01-22T22:04:27.744Z,192.40
2023-01-22T22:06:55.293Z,121.05
2023-01-22T22:09:25.721Z,96.53
2023-01-22T22:11:58.203Z,85.32
2023-01-22T22:14:26.191Z,104.57
2023-01-22T22:16:53.845Z,121.90
2023-01-22T22:19:22.442Z,133.73
2023-01-22T22:21:51.132Z,102.43
2023-01-22T22:24:20.070Z,115.53
2023-01-22T22:26:47.448Z,101.57
2023-01-22T22:29:15.063Z,96.63
2023-01-22T22:31:43.128Z,172.77
2023-01-22T22:34:10.947Z,98.72
2023-01-22T22:36:38.236Z,101.03
2023-01-22T22:39:08.600Z,125.85
2023-01-22T22:41:38.480Z,92.50
2023-01-22T22:44:07.178Z,88.95
2023-01-22T22:46:37.005Z,91.25
2023-01-22T22:49:05.526Z,107.95
2023-01-22T22:51:35.602Z,97.45
2023-01-22T22:54:11.595Z,97.97
2023-01-22T22:56:38.780Z,128.25
2023-01-22T22:59:06.627Z,120.43
2023-01-22T23:01:36.740Z,115.90
2023-01-22T23:04:06.059Z,109.30
2023-01-22T23:06:35.018Z,215.88
2023-01-22T23:09:13.253Z,118.10
2023-01-22T23:11:40.906Z,112.18
2023-01-22T23:14:09.142Z,124.80
2023-01-22T23:16:41.658Z,90.55
2023-01-22T23:19:14.259Z,87.55
2023-01-22T23:21:41.853Z,102.80
2023-01-22T23:24:11.878Z,89.50
2023-01-22T23:26:41.047Z,95.72
2023-01-22T23:29:11.235Z,83.22
2023-01-22T23:31:39.533Z,80.50
2023-01-22T23:34:12.726Z,85.88
2023-01-22T23:36:43.614Z,110.55
2023-01-22T23:39:12.791Z,100.50
2023-01-22T23:41:40.304Z,105.05
2023-01-22T23:44:07.975Z,91.25
2023-01-22T23:46:36.484Z,120.43
2023-01-22T23:49:04.566Z,134.73
2023-01-22T23:51:32.294Z,116.60
2023-01-22T23:54:00.024Z,122.00
2023-01-22T23:56:32.536Z,113.78
2023-01-22T23:59:00.096Z,144.77
